Time;durP1;ratioP1;P1;durP2;ratioP2;P2;SDS_P1;SDS_P2;PMS_P1;PMS_P2;Temp;Humidity;BMP_temperature;BMP_pressure;BME280_temperature;BME280_humidity;BME280_pressure;Samples;Min_cycle;Max_cycle;Signal;HPM_P1;HPM_P2
2022/08/24 00:00:39;;;;;;;;;;;;;;;30.02;65.04;100689.00;5092311;27;66793;-34
2022/08/24 00:03:11;;;;;;;;;;;;;;;30.06;65.60;100690.19;5083969;27;70874;-38
2022/08/24 00:05:44;;;;;;;;;;;;;;;30.08;66.01;100693.53;5087417;27;67230;-35
2022/08/24 00:08:17;;;;;;;;;;;;;;;30.12;66.05;100700.16;5083657;27;70870;-35
2022/08/24 00:10:49;;;;;;;;;;;;;;;30.15;65.91;100699.72;5080302;27;66360;-36
2022/08/24 00:13:22;;;;;;;;;;;;;;;30.20;66.37;100701.75;5084701;27;71078;-34
2022/08/24 00:15:58;;;;;;;;;;;;;;;30.23;66.79;100702.19;5061216;28;66230;-34
2022/08/24 00:18:30;;;;;;;;;;;;;;;30.26;66.80;100700.94;5083678;27;70387;-35
2022/08/24 00:21:03;;;;;;;;;;;;;;;30.27;66.63;100703.41;5084969;27;66506;-35
2022/08/24 00:23:35;;;;;;;;;;;;;;;30.24;66.29;100709.25;5077013;27;70744;-35
2022/08/24 00:26:08;;;;;;;;;;;;;;;30.21;67.15;100703.44;5083494;27;66924;-35
2022/08/24 00:28:40;;;;;;;;;;;;;;;30.21;67.46;100701.53;5086965;27;71177;-33
2022/08/24 00:31:12;;;;;;;;;;;;;;;30.23;67.86;100704.91;5064793;28;67155;-36
2022/08/24 00:33:44;;;;;;;;;;;;;;;30.28;67.47;100705.06;5079796;27;70915;-35
2022/08/24 00:36:16;;;;;;;;;;;;;;;30.32;67.22;100704.63;5090697;27;67374;-36
2022/08/24 00:38:48;;;;;;;;;;;;;;;30.32;66.78;100704.63;5088184;27;70375;-35
2022/08/24 00:41:21;;;;;;;;;;;;;;;30.34;66.68;100703.38;5091033;27;67063;-34
2022/08/24 00:43:54;;;;;;;;;;;;;;;30.42;65.71;100710.34;5088791;27;69653;-33
2022/08/24 00:46:30;;;;;;;;;;;;;;;30.49;64.31;100703.03;5075369;27;66174;-34
2022/08/24 00:49:04;;;;;;;;;;;;;;;30.57;63.81;100708.16;5068522;27;70834;-34
2022/08/24 00:51:39;;;;;;;;;;;;;;;30.63;63.08;100707.25;5084401;27;67482;-35
2022/08/24 00:54:12;;;;;;;;;;;;;;;30.68;63.22;100718.25;5086642;27;70926;-33
2022/08/24 00:56:48;;;;;;;;;;;;;;;30.73;62.87;100715.72;5067000;28;66238;-33
2022/08/24 00:59:22;;;;;;;;;;;;;;;30.78;62.78;100714.19;5059469;28;71012;-35
2022/08/24 01:01:55;;;;;;;;;;;;;;;30.84;62.76;100716.03;5060874;28;67653;-34
2022/08/24 01:04:48;;;;;;;;;;;;;;;30.86;62.78;100711.22;5086609;27;71084;-34
2022/08/24 01:07:22;;;;;;;;;;;;;;;30.91;62.48;100714.09;5059544;27;67338;-34
2022/08/24 01:09:56;;;;;;;;;;;;;;;30.94;62.24;100728.00;5095165;27;71312;-34
2022/08/24 01:12:30;;;;;;;;;;;;;;;30.97;62.22;100723.19;5069777;28;67420;-35
2022/08/24 01:15:04;;;;;;;;;;;;;;;30.99;61.50;100727.34;5072952;28;70245;-34
2022/08/24 01:20:27;;;;;;;;;;;;;;;31.04;61.46;100732.91;5052132;28;70146;-34
2022/08/24 01:23:10;;;;;;;;;;;;;;;31.06;60.85;100733.50;5063220;28;67256;-34
2022/08/24 01:25:43;;;;;;;;;;;;;;;31.07;61.21;100737.88;5085799;27;70703;-35
2022/08/24 01:28:19;;;;;;;;;;;;;;;31.10;61.22;100740.13;5070167;27;67250;-34
2022/08/24 01:30:57;;;;;;;;;;;;;;;31.12;60.96;100748.88;5060144;28;71216;-35
2022/08/24 01:33:30;;;;;;;;;;;;;;;31.15;60.89;100753.84;5058620;27;66343;-35
2022/08/24 01:36:12;;;;;;;;;;;;;;;31.17;60.33;100756.31;5086549;27;70435;-35
2022/08/24 01:38:47;;;;;;;;;;;;;;;31.20;60.72;100750.44;5085325;27;42933;-34
2022/08/24 01:41:19;;;;;;;;;;;;;;;31.23;60.24;100760.00;5068947;27;71018;-35
2022/08/24 01:43:58;;;;;;;;;;;;;;;31.23;60.56;100749.16;5063553;28;67138;-34
2022/08/24 01:46:30;;;;;;;;;;;;;;;31.26;60.35;100733.31;5057669;27;70387;-35
2022/08/24 01:49:04;;;;;;;;;;;;;;;31.28;59.72;100741.19;5071040;27;66416;-35
2022/08/24 01:51:36;;;;;;;;;;;;;;;31.28;60.09;100742.00;5086505;27;70618;-35
2022/08/24 01:54:08;;;;;;;;;;;;;;;31.30;59.82;100734.50;5075861;27;66280;-34
2022/08/24 01:56:40;;;;;;;;;;;;;;;31.32;59.58;100737.81;5079725;27;71095;-34
2022/08/24 01:59:12;;;;;;;;;;;;;;;31.34;59.31;100737.56;5060727;27;67332;-35
2022/08/24 02:01:48;;;;;;;;;;;;;;;31.36;59.72;100738.22;5072593;27;70776;-33
2022/08/24 02:04:21;;;;;;;;;;;;;;;31.38;59.43;100746.94;5059000;28;67370;-34
2022/08/24 02:06:55;;;;;;;;;;;;;;;31.39;59.57;100745.88;5085879;27;70128;-34
2022/08/24 02:09:27;;;;;;;;;;;;;;;31.41;59.49;100746.50;5059518;28;66466;-33
2022/08/24 02:12:03;;;;;;;;;;;;;;;31.43;59.03;100738.16;5068569;27;70920;-34
2022/08/24 02:14:36;;;;;;;;;;;;;;;31.45;58.76;100739.53;5084068;27;67158;-34
2022/08/24 02:17:08;;;;;;;;;;;;;;;31.46;58.77;100732.25;5083950;27;69782;-34
2022/08/24 02:19:40;;;;;;;;;;;;;;;31.48;58.99;100733.69;5090524;27;67432;-35
2022/08/24 02:22:12;;;;;;;;;;;;;;;31.50;58.65;100731.56;5071174;27;70926;-34
2022/08/24 02:24:44;;;;;;;;;;;;;;;31.52;58.84;100732.16;5044009;27;67298;-34
2022/08/24 02:27:16;;;;;;;;;;;;;;;31.54;58.74;100730.06;5065076;27;70963;-35
2022/08/24 02:29:48;;;;;;;;;;;;;;;31.55;58.49;100723.56;5067286;27;67248;-34
2022/08/24 02:32:20;;;;;;;;;;;;;;;31.57;58.40;100713.34;5077189;27;70859;-34
2022/08/24 02:34:52;;;;;;;;;;;;;;;31.59;58.56;100705.81;5072159;27;67325;-35
2022/08/24 02:37:24;;;;;;;;;;;;;;;31.61;58.18;100703.66;5086356;27;70397;-36
2022/08/24 02:39:56;;;;;;;;;;;;;;;31.63;58.09;100695.31;5094708;27;67617;-34
2022/08/24 02:42:29;;;;;;;;;;;;;;;31.66;58.33;100699.47;5052335;27;70849;-34
2022/08/24 02:45:01;;;;;;;;;;;;;;;31.68;58.30;100689.19;5069177;27;66368;-35
2022/08/24 02:47:34;;;;;;;;;;;;;;;31.71;58.15;100683.34;5077826;27;70038;-35
2022/08/24 02:50:10;;;;;;;;;;;;;;;31.72;58.28;100677.66;5063695;27;67191;-33
2022/08/24 02:52:42;;;;;;;;;;;;;;;31.73;57.97;100673.91;5069903;27;70018;-34
2022/08/24 02:55:16;;;;;;;;;;;;;;;31.76;58.09;100672.59;5089231;27;67005;-35
2022/08/24 02:57:52;;;;;;;;;;;;;;;31.77;58.08;100682.41;5064931;27;70903;-34
2022/08/24 03:00:26;;;;;;;;;;;;;;;31.79;58.01;100669.44;5081934;27;67249;-34
2022/08/24 03:03:00;;;;;;;;;;;;;;;31.82;57.87;100668.97;5065831;27;71197;-34
2022/08/24 03:05:33;;;;;;;;;;;;;;;31.84;57.86;100666.84;5074599;27;67567;-34
2022/08/24 03:08:06;;;;;;;;;;;;;;;31.86;57.71;100664.72;5069410;27;71140;-35
2022/08/24 03:10:38;;;;;;;;;;;;;;;31.88;57.45;100661.78;5069060;28;66864;-35
2022/08/24 03:13:10;;;;;;;;;;;;;;;31.90;57.80;100656.94;5068249;27;70675;-33
2022/08/24 03:15:45;;;;;;;;;;;;;;;31.91;57.81;100659.47;5066992;28;66724;-34
2022/08/24 03:18:17;;;;;;;;;;;;;;;31.93;57.69;100651.94;5051769;28;70882;-35
2022/08/24 03:20:54;;;;;;;;;;;;;;;31.96;57.28;100643.31;5082159;27;66560;-34
2022/08/24 03:23:27;;;;;;;;;;;;;;;31.97;57.30;100634.13;5078117;27;70886;-34
2022/08/24 03:26:04;;;;;;;;;;;;;;;32.00;57.21;100624.69;5056135;27;66318;-34
2022/08/24 03:28:36;;;;;;;;;;;;;;;32.02;57.29;100628.81;5047391;27;70855;-33
2022/08/24 03:31:09;;;;;;;;;;;;;;;32.04;56.96;100615.03;5056933;28;66662;-34
2022/08/24 03:33:41;;;;;;;;;;;;;;;32.07;57.41;100608.28;5065134;27;69887;-35
2022/08/24 03:36:14;;;;;;;;;;;;;;;32.06;57.34;100610.19;5066962;28;67250;-34
2022/08/24 03:38:46;;;;;;;;;;;;;;;32.11;57.16;100620.34;5055901;27;70844;-35
2022/08/24 03:41:17;;;;;;;;;;;;;;;32.12;57.44;100608.41;5068044;28;67029;-34
2022/08/24 03:43:50;;;;;;;;;;;;;;;32.12;58.21;100611.13;5085725;27;69995;-33
2022/08/24 03:46:26;;;;;;;;;;;;;;;32.13;58.51;100596.50;5067622;28;66169;-34
2022/08/24 03:48:58;;;;;;;;;;;;;;;32.16;58.79;100601.47;5039845;28;70691;-34
2022/08/24 03:51:30;;;;;;;;;;;;;;;32.19;58.63;100606.41;5062751;27;66695;-36
2022/08/24 03:54:03;;;;;;;;;;;;;;;32.21;58.26;100599.69;5079627;27;70859;-35
2022/08/24 03:56:35;;;;;;;;;;;;;;;32.24;58.61;100595.69;5058339;28;67538;-36
2022/08/24 03:59:09;;;;;;;;;;;;;;;32.26;58.47;100590.81;5055842;27;70889;-36
2022/08/24 04:01:44;;;;;;;;;;;;;;;32.27;58.34;100587.06;5065747;27;66491;-37
2022/08/24 04:04:16;;;;;;;;;;;;;;;32.29;58.32;100579.53;5069092;27;71121;-37
2022/08/24 04:06:49;;;;;;;;;;;;;;;32.31;58.31;100588.22;5089033;27;66297;-36
2022/08/24 04:09:22;;;;;;;;;;;;;;;32.33;58.24;100577.97;5064884;28;70844;-36
2022/08/24 04:11:58;;;;;;;;;;;;;;;32.35;58.00;100575.03;5064694;28;67000;-36
2022/08/24 04:14:31;;;;;;;;;;;;;;;32.35;58.21;100577.75;5062988;28;71001;-36
2022/08/24 04:17:11;;;;;;;;;;;;;;;32.37;58.48;100576.41;5070358;27;66087;-38
2022/08/24 04:20:07;;;;;;;;;;;;;;;32.36;58.42;100563.91;5056522;27;70628;-36
2022/08/24 04:22:41;;;;;;;;;;;;;;;32.38;58.40;100572.66;5071095;27;66019;-35
2022/08/24 04:25:14;;;;;;;;;;;;;;;32.37;58.71;100565.56;5054043;28;70871;-35
2022/08/24 04:27:50;;;;;;;;;;;;;;;32.39;58.58;100568.88;5072751;28;67234;-35
2022/08/24 04:30:24;;;;;;;;;;;;;;;32.38;58.62;100564.50;5080692;27;70500;-36
2022/08/24 04:33:06;;;;;;;;;;;;;;;32.39;58.56;100558.00;5066401;28;67162;-36
2022/08/24 04:35:40;;;;;;;;;;;;;;;32.40;58.27;100553.41;5058965;27;70396;-36
2022/08/24 04:38:12;;;;;;;;;;;;;;;32.39;58.93;100547.16;5056168;27;66577;-39
2022/08/24 04:40:53;;;;;;;;;;;;;;;32.40;58.64;100537.13;5083554;27;70728;-35
2022/08/24 04:43:29;;;;;;;;;;;;;;;32.40;58.37;100537.97;5063156;27;67152;-34
2022/08/24 04:46:04;;;;;;;;;;;;;;;32.41;58.68;100534.16;5074520;27;70847;-35
2022/08/24 04:48:36;;;;;;;;;;;;;;;32.42;58.73;100532.28;5093200;27;67244;-36
2022/08/24 04:51:10;;;;;;;;;;;;;;;32.42;58.77;100533.09;5059980;28;70434;-36
2022/08/24 04:53:44;;;;;;;;;;;;;;;32.44;58.60;100522.84;5040216;27;66762;-36
2022/08/24 04:56:22;;;;;;;;;;;;;;;32.46;58.69;100515.31;5053096;28;71183;-36
2022/08/24 04:58:58;;;;;;;;;;;;;;;32.47;58.21;100516.94;5062814;27;66564;-36
2022/08/24 05:01:31;;;;;;;;;;;;;;;32.47;58.59;100511.53;5061512;28;70141;-36
2022/08/24 05:04:05;;;;;;;;;;;;;;;32.51;58.56;100513.75;5065806;27;66463;-36
2022/08/24 05:06:40;;;;;;;;;;;;;;;32.51;58.72;100500.19;5072817;27;69709;-36
2022/08/24 05:09:12;;;;;;;;;;;;;;;32.54;58.54;100494.25;5085480;27;67163;-36
2022/08/24 05:11:46;;;;;;;;;;;;;;;32.55;58.41;100491.31;5063074;27;70576;-36
2022/08/24 05:14:26;;;;;;;;;;;;;;;32.57;58.39;100494.63;5069538;27;67074;-36
2022/08/24 05:16:58;;;;;;;;;;;;;;;32.60;58.60;100488.72;5074874;27;70127;-36
2022/08/24 05:19:33;;;;;;;;;;;;;;;32.60;58.33;100483.28;5061378;28;66883;-36
2022/08/24 05:22:05;;;;;;;;;;;;;;;32.62;58.27;100475.69;5084705;27;70986;-36
2022/08/24 05:24:40;;;;;;;;;;;;;;;32.64;58.44;100472.75;5064028;27;67329;-36
2022/08/24 05:27:12;;;;;;;;;;;;;;;32.65;58.52;100472.53;5065492;27;70926;-36
2022/08/24 05:29:52;;;;;;;;;;;;;;;32.67;58.29;100469.53;5066068;27;67371;-38
2022/08/24 05:32:25;;;;;;;;;;;;;;;32.69;58.34;100470.13;5086649;27;71106;-37
2022/08/24 05:35:00;;;;;;;;;;;;;;;32.70;58.16;100455.47;5077573;27;66981;-37
2022/08/24 05:37:36;;;;;;;;;;;;;;;32.73;58.37;100449.56;5067657;27;69490;-36
2022/08/24 05:40:17;;;;;;;;;;;;;;;32.75;58.17;100441.19;5047446;27;67137;-36
2022/08/24 05:42:54;;;;;;;;;;;;;;;32.76;58.26;100443.63;5070323;27;70061;-35
2022/08/24 05:45:26;;;;;;;;;;;;;;;32.79;58.09;100442.31;5062904;27;67182;-35
2022/08/24 05:47:59;;;;;;;;;;;;;;;32.80;58.19;100439.38;5062109;28;70718;-36
2022/08/24 05:50:57;;;;;;;;;;;;;;;32.82;58.20;100428.25;5064321;27;66837;-36
2022/08/24 05:53:35;;;;;;;;;;;;;;;32.84;58.12;100423.41;5070632;27;69075;-36
2022/08/24 05:56:12;;;;;;;;;;;;;;;32.86;57.90;100421.28;5070195;27;66821;-35
2022/08/24 05:58:45;;;;;;;;;;;;;;;32.89;58.00;100418.06;5071099;28;70832;-36
2022/08/24 06:01:19;;;;;;;;;;;;;;;32.90;57.98;100417.00;5058176;28;66351;-37
2022/08/24 06:03:54;;;;;;;;;;;;;;;32.91;57.91;100414.03;5058517;28;71020;-36
2022/08/24 06:06:27;;;;;;;;;;;;;;;32.95;57.91;100403.50;5084683;27;65954;-35
2022/08/24 06:09:00;;;;;;;;;;;;;;;32.97;57.96;100395.13;5038087;28;70749;-36
2022/08/24 06:11:37;;;;;;;;;;;;;;;32.98;57.92;100386.69;5066993;27;67300;-38
2022/08/24 06:14:12;;;;;;;;;;;;;;;33.00;57.80;100378.34;5062603;28;70101;-35
2022/08/24 06:17:06;;;;;;;;;;;;;;;33.03;57.81;100377.84;5060662;27;67298;-37
2022/08/24 06:19:39;;;;;;;;;;;;;;;33.06;57.73;100377.34;5046444;27;70573;-36
2022/08/24 06:22:11;;;;;;;;;;;;;;;33.07;57.58;100373.56;5067970;28;67515;-36
2022/08/24 06:27:33;;;;;;;;;;;;;;;33.11;57.83;100353.81;5065477;28;67703;-36
2022/08/24 06:30:08;;;;;;;;;;;;;;;33.13;57.68;100354.38;5053354;28;70829;-35
2022/08/24 06:32:46;;;;;;;;;;;;;;;33.16;57.42;100342.19;5084343;27;65870;-37
2022/08/24 06:35:39;;;;;;;;;;;;;;;33.19;57.55;100332.72;5084747;27;70013;-36
2022/08/24 06:38:16;;;;;;;;;;;;;;;33.22;57.57;100330.31;5077515;27;66366;-36
2022/08/24 06:40:51;;;;;;;;;;;;;;;33.24;57.32;100330.91;5058765;28;71142;-36
2022/08/24 06:43:23;;;;;;;;;;;;;;;33.26;57.51;100315.16;5065774;27;67396;-36
2022/08/24 06:45:56;;;;;;;;;;;;;;;33.29;57.20;100317.38;5093737;27;71000;-36
2022/08/24 06:48:41;;;;;;;;;;;;;;;33.32;57.46;100308.72;5059662;28;67388;-36
2022/08/24 06:51:14;;;;;;;;;;;;;;;33.35;57.32;100305.50;5062069;28;70423;-36
2022/08/24 06:53:49;;;;;;;;;;;;;;;33.37;57.32;100303.34;5054064;28;66541;-37
2022/08/24 06:56:21;;;;;;;;;;;;;;;33.41;57.27;100308.31;5061839;28;70874;-36
2022/08/24 06:58:53;;;;;;;;;;;;;;;33.43;56.97;100300.69;5081808;28;66319;-37
2022/08/24 07:01:27;;;;;;;;;;;;;;;33.46;57.20;100305.63;5060363;28;69496;-36
2022/08/24 07:04:01;;;;;;;;;;;;;;;33.47;57.07;100301.84;5060638;28;67119;-37
2022/08/24 07:06:51;;;;;;;;;;;;;;;33.49;57.14;100303.25;5071664;28;70675;-37
2022/08/24 07:09:26;;;;;;;;;;;;;;;33.51;57.12;100302.97;5062915;28;66224;-36
2022/08/24 07:11:58;;;;;;;;;;;;;;;33.53;57.23;100306.31;5082116;28;70719;-37
2022/08/24 07:14:31;;;;;;;;;;;;;;;33.55;56.72;100301.44;5077454;27;66685;-37
2022/08/24 07:17:04;;;;;;;;;;;;;;;33.56;56.83;100301.19;5046498;28;70603;-36
2022/08/24 07:19:38;;;;;;;;;;;;;;;33.57;56.95;100297.41;5055206;28;66456;-36
2022/08/24 07:22:11;;;;;;;;;;;;;;;33.60;56.84;100285.19;5075355;28;70432;-36
2022/08/24 07:24:45;;;;;;;;;;;;;;;33.62;56.74;100283.03;5055594;28;67176;-37
2022/08/24 07:27:17;;;;;;;;;;;;;;;33.64;56.51;100291.75;5060284;28;69915;-36
2022/08/24 07:29:52;;;;;;;;;;;;;;;33.65;56.54;100293.41;5081588;27;66543;-36
2022/08/24 07:32:45;;;;;;;;;;;;;;;33.68;56.61;100287.44;5059767;27;69907;-36
2022/08/24 07:35:17;;;;;;;;;;;;;;;33.71;56.39;100288.84;5057850;27;66589;-35
2022/08/24 07:37:49;;;;;;;;;;;;;;;33.73;56.52;100283.97;5055333;27;70736;-36
2022/08/24 07:40:24;;;;;;;;;;;;;;;33.74;56.27;100281.00;5072937;27;66313;-36
2022/08/24 07:42:57;;;;;;;;;;;;;;;33.77;56.25;100275.06;5070390;28;70761;-37
2022/08/24 07:45:29;;;;;;;;;;;;;;;33.80;56.33;100269.13;5061500;28;65504;-36
2022/08/24 07:48:02;;;;;;;;;;;;;;;33.83;56.64;100261.53;5094660;27;70805;-37
2022/08/24 07:50:42;;;;;;;;;;;;;;;33.85;56.47;100260.19;5073746;27;67218;-37
2022/08/24 07:53:15;;;;;;;;;;;;;;;33.67;56.61;100225.97;5064663;28;71110;-36
2022/08/24 07:55:57;;;;;;;;;;;;;;;33.90;56.42;100245.81;5058588;28;66310;-36
2022/08/24 07:58:31;;;;;;;;;;;;;;;33.93;56.96;100242.56;5079521;27;70444;-36
2022/08/24 08:01:07;;;;;;;;;;;;;;;33.94;57.46;100244.22;5065749;28;66637;-36
2022/08/24 08:03:39;;;;;;;;;;;;;;;33.94;57.89;100241.50;5049210;28;71216;-35
2022/08/24 08:06:12;;;;;;;;;;;;;;;33.93;57.81;100227.06;5080040;27;67336;-37
2022/08/24 08:08:47;;;;;;;;;;;;;;;33.94;57.09;100226.00;5065511;28;70289;-37
2022/08/24 08:11:19;;;;;;;;;;;;;;;33.96;57.08;100223.00;5040935;28;67296;-36
2022/08/24 08:13:52;;;;;;;;;;;;;;;33.96;57.62;100217.56;5065628;28;71049;-36
2022/08/24 08:16:26;;;;;;;;;;;;;;;33.98;57.04;100218.13;5054793;28;66323;-36
2022/08/24 08:18:58;;;;;;;;;;;;;;;33.98;57.11;100215.41;5060398;28;70087;-36
2022/08/24 08:24:54;;;;;;;;;;;;;;;34.03;57.44;100223.63;5080670;28;70424;-36
2022/08/24 08:27:27;;;;;;;;;;;;;;;34.05;58.37;100220.69;5081913;28;67958;-36
2022/08/24 08:29:59;;;;;;;;;;;;;;;34.03;58.59;100201.88;5078400;27;70986;-36
2022/08/24 08:32:31;;;;;;;;;;;;;;;34.03;58.51;100191.78;5063766;28;67514;-36
2022/08/24 08:35:03;;;;;;;;;;;;;;;34.05;57.97;100183.41;5082256;27;70683;-36
2022/08/24 08:37:37;;;;;;;;;;;;;;;34.05;57.95;100188.84;5046912;28;67057;-36
2022/08/24 08:40:12;;;;;;;;;;;;;;;34.05;57.80;100205.19;5058344;28;71014;-36
2022/08/24 08:42:55;;;;;;;;;;;;;;;34.04;58.10;100219.81;5062536;28;66983;-36
2022/08/24 08:45:46;;;;;;;;;;;;;;;34.03;57.60;100229.88;5069463;27;70894;-35
2022/08/24 08:48:38;;;;;;;;;;;;;;;34.04;58.12;100236.16;5081247;28;66422;-36
2022/08/24 08:51:26;;;;;;;;;;;;;;;34.03;58.05;100215.47;5064712;28;70859;-36
2022/08/24 08:54:11;;;;;;;;;;;;;;;34.03;58.04;100186.34;5081631;27;66754;-36
2022/08/24 08:56:59;;;;;;;;;;;;;;;34.04;58.02;100181.72;5064285;28;70684;-35
2022/08/24 08:59:50;;;;;;;;;;;;;;;34.04;57.89;100219.81;5062762;28;66018;-35
2022/08/24 09:02:23;;;;;;;;;;;;;;;34.04;58.17;100225.25;5081149;28;71260;-36
2022/08/24 09:05:18;;;;;;;;;;;;;;;34.02;58.40;100222.00;5050467;28;66265;-35
2022/08/24 09:07:57;;;;;;;;;;;;;;;34.04;58.13;100238.88;5081552;27;70517;-35
2022/08/24 09:10:47;;;;;;;;;;;;;;;34.03;58.17;100243.50;5083457;28;67168;-37
2022/08/24 09:13:33;;;;;;;;;;;;;;;34.03;58.30;100253.56;5064681;28;70320;-38
2022/08/24 09:16:11;;;;;;;;;;;;;;;34.02;58.46;100251.94;5064781;28;67191;-37
2022/08/24 09:19:04;;;;;;;;;;;;;;;33.99;59.27;100263.31;5047070;28;70911;-37
2022/08/24 09:21:42;;;;;;;;;;;;;;;33.97;59.69;100258.13;5072588;28;66357;-36
2022/08/24 09:24:24;;;;;;;;;;;;;;;33.96;59.48;100266.53;5063907;28;70416;-37
2022/08/24 09:27:15;;;;;;;;;;;;;;;33.94;59.44;100268.72;5063114;28;66011;-37
2022/08/24 09:30:19;;;;;;;;;;;;;;;33.92;60.11;100254.53;5057708;28;70010;-36
2022/08/24 09:32:58;;;;;;;;;;;;;;;33.89;60.19;100244.19;5016505;28;66431;-36
2022/08/24 09:35:38;;;;;;;;;;;;;;;33.88;60.10;100231.63;5080328;27;71722;-41
2022/08/24 09:38:29;;;;;;;;;;;;;;;33.83;60.58;100209.84;5064414;28;67295;-37
2022/08/24 09:41:19;;;;;;;;;;;;;;;33.82;60.74;100206.28;5079846;27;70284;-36
2022/08/24 09:44:17;;;;;;;;;;;;;;;33.81;60.64;100191.84;5081772;28;66534;-36
2022/08/24 09:46:58;;;;;;;;;;;;;;;33.79;60.44;100191.31;5059188;28;70804;-35
2022/08/24 09:49:30;;;;;;;;;;;;;;;33.76;60.56;100194.50;5081650;28;67715;-36
2022/08/24 09:52:20;;;;;;;;;;;;;;;33.74;60.78;100204.84;5080731;27;70940;-37
2022/08/24 09:55:10;;;;;;;;;;;;;;;33.73;60.90;100218.69;5075796;28;66724;-36
2022/08/24 09:57:57;;;;;;;;;;;;;;;33.68;60.71;100222.16;5081390;28;70717;-36
2022/08/24 10:00:36;;;;;;;;;;;;;;;33.66;61.20;100218.09;5082560;27;67863;-36
2022/08/24 10:03:26;;;;;;;;;;;;;;;33.64;60.92;100226.50;5064026;28;70888;-36
2022/08/24 10:06:06;;;;;;;;;;;;;;;33.63;60.66;100232.16;5081348;27;67318;-35
2022/08/24 10:08:59;;;;;;;;;;;;;;;33.61;61.04;100237.88;5080012;28;70022;-36
2022/08/24 10:11:35;;;;;;;;;;;;;;;33.57;61.03;100240.28;5081794;28;68028;-35
2022/08/24 10:14:10;;;;;;;;;;;;;;;33.29;62.95;100246.72;5081361;27;71037;-36
2022/08/24 10:17:00;;;;;;;;;;;;;;;33.09;64.21;100247.25;5081983;28;66398;-35
2022/08/24 10:19:38;;;;;;;;;;;;;;;32.97;65.21;100253.84;5080221;28;69977;-36
2022/08/24 10:22:13;;;;;;;;;;;;;;;32.85;65.69;100262.91;5082186;28;67465;-37
2022/08/24 10:24:53;;;;;;;;;;;;;;;32.76;66.97;100269.81;5081419;27;70208;-39
2022/08/24 10:27:32;;;;;;;;;;;;;;;32.70;67.53;100268.09;5078730;28;67278;-36
2022/08/24 10:30:23;;;;;;;;;;;;;;;32.62;67.12;100276.66;5058751;28;70718;-36
2022/08/24 10:32:57;;;;;;;;;;;;;;;32.57;67.77;100282.00;5081090;28;66612;-35
2022/08/24 10:35:36;;;;;;;;;;;;;;;32.54;68.08;100277.06;5079544;27;70731;-36
2022/08/24 10:41:28;;;;;;;;;;;;;;;32.45;68.52;100291.00;5079831;28;70941;-37
2022/08/24 10:44:07;;;;;;;;;;;;;;;32.41;68.54;100295.28;5078489;28;66408;-37
2022/08/24 10:46:47;;;;;;;;;;;;;;;32.40;68.72;100292.81;5079490;28;70063;-36
2022/08/24 10:49:19;;;;;;;;;;;;;;;32.40;69.04;100293.66;5077746;28;66050;-40
2022/08/24 10:52:10;;;;;;;;;;;;;;;32.40;69.23;100301.78;5027704;28;70583;-36
2022/08/24 10:54:42;;;;;;;;;;;;;;;32.40;69.39;100307.22;5076143;28;67215;-38
2022/08/24 10:57:18;;;;;;;;;;;;;;;32.39;69.31;100312.88;5060664;28;70611;-37
2022/08/24 11:00:04;;;;;;;;;;;;;;;32.36;68.85;100322.34;5078447;28;66984;-37
2022/08/24 11:02:37;;;;;;;;;;;;;;;32.35;68.75;100334.28;5080789;27;70499;-37
2022/08/24 11:05:11;;;;;;;;;;;;;;;32.33;68.57;100330.97;5078979;28;66820;-36
2022/08/24 11:08:03;;;;;;;;;;;;;;;32.33;69.16;100306.53;5078281;28;70128;-35
2022/08/24 11:10:38;;;;;;;;;;;;;;;32.35;69.63;100307.13;5075592;28;66619;-34
2022/08/24 11:13:26;;;;;;;;;;;;;;;32.33;69.75;100311.97;5077721;28;69687;-36
2022/08/24 11:15:59;;;;;;;;;;;;;;;32.36;69.76;100335.91;5061222;28;67107;-36
2022/08/24 11:18:51;;;;;;;;;;;;;;;32.38;70.09;100349.25;5077170;28;70470;-36
2022/08/24 11:21:32;;;;;;;;;;;;;;;32.47;69.11;100348.63;5077738;27;67001;-36
2022/08/24 11:24:07;;;;;;;;;;;;;;;32.56;68.11;100340.91;5078032;27;70154;-36
2022/08/24 11:26:54;;;;;;;;;;;;;;;32.63;67.48;100335.34;5077188;28;66520;-36
2022/08/24 11:29:30;;;;;;;;;;;;;;;32.68;66.86;100333.53;5078648;28;70223;-35
2022/08/24 11:32:02;;;;;;;;;;;;;;;32.72;66.17;100342.00;5074225;28;66590;-36
2022/08/24 11:34:36;;;;;;;;;;;;;;;32.74;66.30;100348.03;5078361;28;70901;-37
2022/08/24 11:37:14;;;;;;;;;;;;;;;32.77;65.89;100358.38;5077903;28;66379;-36
2022/08/24 11:39:49;;;;;;;;;;;;;;;32.79;65.58;100369.84;5078235;28;69932;-35
2022/08/24 11:42:35;;;;;;;;;;;;;;;32.81;65.54;100370.41;5078931;28;66951;-36
2022/08/24 11:45:15;;;;;;;;;;;;;;;32.83;65.05;100373.69;5059737;28;70476;-35
2022/08/24 11:48:05;;;;;;;;;;;;;;;32.84;64.84;100380.75;5057753;28;66753;-36
2022/08/24 11:50:47;;;;;;;;;;;;;;;32.85;64.89;100387.03;5077303;28;69885;-36
2022/08/24 11:53:35;;;;;;;;;;;;;;;32.86;64.71;100394.13;5075832;28;67275;-36
2022/08/24 11:56:07;;;;;;;;;;;;;;;32.85;64.55;100398.72;5082800;27;70920;-35
2022/08/24 11:58:45;;;;;;;;;;;;;;;32.86;64.63;100400.38;5076983;28;66562;-36
2022/08/24 12:01:27;;;;;;;;;;;;;;;32.86;64.50;100405.81;5079548;28;70357;-36
2022/08/24 12:04:08;;;;;;;;;;;;;;;32.86;64.53;100411.22;5062598;28;67320;-36
2022/08/24 12:06:55;;;;;;;;;;;;;;;32.86;64.37;100405.81;5080372;28;71857;-35
2022/08/24 12:09:39;;;;;;;;;;;;;;;32.86;64.47;100422.09;5061457;28;67329;-36
2022/08/24 12:12:15;;;;;;;;;;;;;;;32.86;64.27;100427.53;5051127;28;70154;-35
2022/08/24 12:14:51;;;;;;;;;;;;;;;32.86;64.13;100438.41;5078883;28;66190;-35
2022/08/24 12:17:26;;;;;;;;;;;;;;;32.85;64.20;100447.63;5080022;28;70967;-37
2022/08/24 12:20:08;;;;;;;;;;;;;;;32.87;64.18;100459.06;5080047;28;66309;-35
2022/08/24 12:22:41;;;;;;;;;;;;;;;32.87;64.36;100478.06;5057997;28;71012;-36
2022/08/24 12:28:06;;;;;;;;;;;;;;;32.86;64.18;100503.59;5076197;28;71586;-36
2022/08/24 12:30:38;;;;;;;;;;;;;;;32.85;64.20;100507.38;5080037;27;66304;-36
2022/08/24 12:33:12;;;;;;;;;;;;;;;32.86;64.38;100506.31;5081990;28;70541;-36
2022/08/24 12:35:52;;;;;;;;;;;;;;;32.87;64.07;100512.56;5079428;28;67402;-36
2022/08/24 12:38:31;;;;;;;;;;;;;;;32.86;64.08;100505.50;5080757;28;70295;-36
2022/08/24 12:41:16;;;;;;;;;;;;;;;32.87;64.11;100509.84;5080752;28;66191;-36
2022/08/24 12:43:48;;;;;;;;;;;;;;;32.86;64.14;100506.31;5080912;28;71089;-35
2022/08/24 12:46:21;;;;;;;;;;;;;;;32.88;64.04;100517.78;5080343;28;66923;-36
2022/08/24 12:48:53;;;;;;;;;;;;;;;32.87;64.24;100516.09;5081182;28;70995;-36
2022/08/24 12:51:25;;;;;;;;;;;;;;;32.88;64.18;100517.78;5060510;28;66351;-37
2022/08/24 12:54:01;;;;;;;;;;;;;;;32.88;64.35;100512.34;5082035;28;69828;-37
2022/08/24 12:56:48;;;;;;;;;;;;;;;32.88;64.55;100519.66;5081872;28;67359;-37
2022/08/24 12:59:23;;;;;;;;;;;;;;;32.89;64.25;100513.16;5059287;28;69957;-35
2022/08/24 13:01:59;;;;;;;;;;;;;;;32.87;64.32;100505.22;5063849;28;67294;-36
2022/08/24 13:05:03;;;;;;;;;;;;;;;32.88;64.42;100504.19;5080297;28;70205;-36
2022/08/24 13:07:43;;;;;;;;;;;;;;;32.88;64.27;100496.03;5036058;28;66578;-39
2022/08/24 13:10:36;;;;;;;;;;;;;;;32.87;64.42;100491.66;5081182;28;70826;-37
2022/08/24 13:13:10;;;;;;;;;;;;;;;32.87;64.53;100502.50;5080269;27;66496;-35
2022/08/24 13:15:45;;;;;;;;;;;;;;;32.87;64.55;100499.81;5081520;28;70366;-35
2022/08/24 13:18:17;;;;;;;;;;;;;;;32.84;64.62;100497.56;5080560;27;66961;-36
2022/08/24 13:20:49;;;;;;;;;;;;;;;32.78;65.24;100511.31;5079866;28;69992;-40
2022/08/24 13:23:22;;;;;;;;;;;;;;;32.54;66.68;100526.84;5056476;28;67093;-39
2022/08/24 13:26:17;;;;;;;;;;;;;;;32.38;68.02;100533.84;5080343;28;70419;-36
2022/08/24 13:28:51;;;;;;;;;;;;;;;32.14;66.76;100547.41;5078844;28;67109;-36
2022/08/24 13:31:32;;;;;;;;;;;;;;;31.94;66.08;100550.50;5078986;28;70216;-35
2022/08/24 13:34:05;;;;;;;;;;;;;;;31.79;65.07;100541.97;5077422;27;67331;-34
2022/08/24 13:36:46;;;;;;;;;;;;;;;31.69;64.26;100547.16;5081773;28;69496;-34
2022/08/24 13:39:44;;;;;;;;;;;;;;;31.56;64.31;100549.00;5081631;28;66468;-36